Augusto Pestana, Brazil
Current Conditions -  °F | °C
As of 6:00 PM on Tuesday 25 Nov 2014 (Local Time) from SBSM Reporting Station
Scattered Clouds Scattered Clouds  
Wind Chill: 81°   Ceiling: Unl
Heat Index: 83°   Visibility: 6mi
Dew Point: 68°   Wind: 7mph
Humidity: 65%   Direction: 130°SE
Pressure: 29.71"   Gusts: NA
Location:  28.52°S, 53.99°W
Report Text: SBSM 252000Z 13006KT 9999 FEW027 FEW040TCU SCT100 27/20 Q1006
Loading
Personal Weather Stations






























Interactive Weather Map New forecast layout! Learn more

10-Day Weather Forecast

Advertisements
Track Severe Weather on mobile